Tropical Cyclones
[Index]
Main Index Home Page Stock Weather Photos Extreme Storms Discussion Storm News and Storm Chasing Reports Tropical Cyclones / Hurricanes / Typhoons Weather Data and Links Wild Fires / Bushfires Weather Observation Techniques Weather Picture Catalogue Tornado Pictures and Reports Stock Video Footage and DVDs for sale
Season 2005-2006 Tropical Cyclone WATI Track Map
Season 2005-2006 Summaries: [BoM-AU] [JTWC-AU] [JTWC-SIO] [JTWC-SPAC] [JTWC-SH]
<<- Previous TC | BoM 2005-2006 Season | Next TC ->>

click for intensity scale information  Lat/long Grid: Show Hide

 Date Labels: Show Hide

Bureau of Meteorology Tropical Cyclone Data

Name: WATI
Number: 900 / 200506_17

20 Mar 2006 06:00 UTC to 24 Mar 2006 18:00 UTC

    date/time    lat    long    hPa   cat  kts
2006-03-20 06   17.2   159.1    985    2    50          
2006-03-20 12   17.3   157.6    975    2    60          
2006-03-20 18   17.5   156.3    975    2                
2006-03-21 00   17.6   155.3    975    2    60          
2006-03-21 06   17.6   154.9    975    2    60          
2006-03-21 12   17.6   154.2    975    2                
2006-03-21 18   17.7   153.7    970    3    65          
2006-03-22 00   17.9   153.7    960    3                
2006-03-22 06   18.0   153.7    955    4    85          
2006-03-22 12   18.0   153.9    955    4    85          
2006-03-22 18   18.3   154.3    955    4    85          
2006-03-23 00   18.6   154.7    960    3    75          
2006-03-23 06   19.0   155.5    960    3    75          
2006-03-23 12   19.0   156.2    960    3    75          
2006-03-23 18   20.3   157.1    950    4    85          
2006-03-24 00   20.9   158.5    950    4    85          
2006-03-24 06   22.7   159.8    960    3    75          
2006-03-24 12   23.9   160.9    965    3    75          
2006-03-24 18   25.3   161.7    965    3    75          
Winds are 10-min average.

Tropical cyclone tracks developed by Michael Bath using data from the Bureau of Meteorology and Google Maps.


[Australian Severe Weather index] [Copyright Notice] [Email Contacts] [Search This Site] [Privacy Policy]
Document: tropical_cyclone_wati.htm Updated: 29 June 2017